createdAt,value
2023-01-06T00:01:20.792Z,99590.47
2023-01-06T00:07:22.716Z,99574.34
2023-01-06T00:13:24.708Z,99572.28
2023-01-06T00:19:26.640Z,99565.19
2023-01-06T00:25:28.529Z,99553.66
2023-01-06T00:31:30.797Z,99551.44
2023-01-06T00:37:32.946Z,99565.56
2023-01-06T00:43:34.825Z,99560.84
2023-01-06T00:49:37.312Z,99562.97
2023-01-06T00:55:39.203Z,99559.19
2023-01-06T01:01:42.659Z,99551.44
2023-01-06T01:07:44.661Z,99546.00
2023-01-06T01:13:46.524Z,99550.22
2023-01-06T01:19:50.898Z,99548.84
2023-01-06T01:25:57.163Z,99546.00
2023-01-06T01:31:59.477Z,99544.63
2023-01-06T01:38:01.361Z,99542.94
2023-01-06T01:44:54.061Z,99551.81
2023-01-06T01:50:58.419Z,99540.38
2023-01-06T01:57:09.991Z,99539.28
2023-01-06T02:03:14.336Z,99537.69
2023-01-06T02:09:33.103Z,99527.59
2023-01-06T02:15:35.077Z,99524.72
2023-01-06T02:22:30.671Z,99520.75
2023-01-06T02:28:55.400Z,99520.69
2023-01-06T02:35:32.717Z,99499.81
2023-01-06T02:42:13.458Z,99498.88
2023-01-06T02:48:42.195Z,99486.22
2023-01-06T02:55:28.872Z,99485.59
2023-01-06T03:01:40.711Z,99480.50
2023-01-06T03:07:45.952Z,99480.38
2023-01-06T03:13:58.175Z,99466.34
2023-01-06T03:20:00.351Z,99482.81
2023-01-06T03:26:03.555Z,99484.66
2023-01-06T03:32:36.432Z,99472.59
2023-01-06T03:39:02.303Z,99461.69
2023-01-06T03:45:14.720Z,99447.28
2023-01-06T03:51:40.479Z,99438.53
2023-01-06T03:57:51.093Z,99437.50
2023-01-06T04:03:54.666Z,99446.41
2023-01-06T04:09:56.671Z,99443.31
2023-01-06T04:15:58.595Z,99456.13
2023-01-06T04:22:00.602Z,99443.50
2023-01-06T04:28:02.513Z,99449.75
2023-01-06T04:34:04.453Z,99422.59
2023-01-06T04:40:07.797Z,99438.75
2023-01-06T04:46:09.797Z,99432.72
2023-01-06T04:52:11.771Z,99432.34
2023-01-06T04:58:13.668Z,99418.06
2023-01-06T05:04:15.563Z,99403.06
2023-01-06T05:10:17.564Z,99394.06
2023-01-06T05:16:32.081Z,99387.66
2023-01-06T05:22:34.021Z,99385.06
2023-01-06T05:28:35.893Z,99379.75
2023-01-06T05:34:37.764Z,99373.06
2023-01-06T05:40:39.637Z,99365.38
2023-01-06T05:46:41.563Z,99380.91
2023-01-06T05:52:43.482Z,99371.91
2023-01-06T05:58:51.877Z,99367.84
2023-01-06T06:04:53.784Z,99353.22
2023-01-06T06:10:55.713Z,99363.97
2023-01-06T06:16:57.730Z,99365.16
2023-01-06T06:22:59.664Z,99364.34
2023-01-06T06:29:01.641Z,99377.50
2023-01-06T06:35:03.771Z,99373.38
2023-01-06T06:41:05.842Z,99372.59
2023-01-06T06:47:08.289Z,99372.06
2023-01-06T06:53:10.214Z,99378.38
2023-01-06T06:59:12.112Z,99354.91
2023-01-06T07:05:14.073Z,99358.50
2023-01-06T07:11:16.043Z,99368.25
2023-01-06T07:17:17.911Z,99369.91
2023-01-06T07:23:20.922Z,99364.53
2023-01-06T07:29:22.820Z,99371.03
2023-01-06T07:35:24.710Z,99387.94
2023-01-06T07:41:26.610Z,99361.41
2023-01-06T07:47:28.491Z,99361.19
2023-01-06T07:53:30.516Z,99345.78
2023-01-06T07:59:32.406Z,99348.31
2023-01-06T08:05:44.061Z,99355.53
2023-01-06T08:11:45.975Z,99352.00
2023-01-06T08:17:47.853Z,99356.94
2023-01-06T08:23:49.755Z,99341.59
2023-01-06T08:29:54.751Z,99339.03
2023-01-06T08:36:01.763Z,99344.56
2023-01-06T08:42:03.780Z,99351.28
2023-01-06T08:48:05.872Z,99363.56
2023-01-06T08:54:07.806Z,99361.28
2023-01-06T09:00:10.594Z,99361.00
2023-01-06T09:06:13.068Z,99372.97
2023-01-06T09:12:15.205Z,99369.38
2023-01-06T09:18:17.219Z,99372.72
2023-01-06T09:24:19.382Z,99372.06
2023-01-06T09:30:21.320Z,99385.53
2023-01-06T09:36:23.368Z,99383.59
2023-01-06T09:42:55.918Z,99375.19
2023-01-06T09:49:03.559Z,99374.44
2023-01-06T09:55:12.325Z,99367.28
2023-01-06T10:01:20.133Z,99368.13
2023-01-06T10:07:40.992Z,99364.78
2023-01-06T10:14:02.575Z,99354.69
2023-01-06T10:20:37.681Z,99353.66
2023-01-06T10:26:56.689Z,99347.19
2023-01-06T10:32:59.014Z,99331.50
2023-01-06T10:39:03.418Z,99321.56
2023-01-06T10:45:07.633Z,99336.69
2023-01-06T10:51:41.035Z,99333.56
2023-01-06T10:57:43.157Z,99340.75
2023-01-06T11:03:45.621Z,99344.00
2023-01-06T11:09:47.693Z,99330.41
2023-01-06T11:15:50.198Z,99331.06
2023-01-06T11:21:52.163Z,99325.06
2023-01-06T11:28:20.916Z,99331.84
2023-01-06T11:34:28.960Z,99324.06
2023-01-06T11:40:34.323Z,99325.72
2023-01-06T11:46:39.801Z,99334.19
2023-01-06T11:52:41.730Z,99336.84
2023-01-06T11:59:10.264Z,99341.06
2023-01-06T12:05:32.307Z,99348.13
2023-01-06T12:11:42.585Z,99338.44
2023-01-06T12:17:58.261Z,99339.59
2023-01-06T12:24:04.966Z,99358.81
2023-01-06T12:30:26.233Z,99354.13
2023-01-06T12:36:46.331Z,99353.25
2023-01-06T12:43:18.698Z,99356.13
2023-01-06T12:49:49.707Z,99368.34
2023-01-06T12:56:20.985Z,99384.75
2023-01-06T13:03:05.776Z,99373.03
2023-01-06T13:09:44.400Z,99380.13
2023-01-06T13:15:46.849Z,99382.75
2023-01-06T13:21:54.167Z,99367.69
2023-01-06T13:28:11.058Z,99368.56
2023-01-06T13:35:09.014Z,99377.09
2023-01-06T13:41:22.830Z,99384.34
2023-01-06T13:47:25.706Z,99373.81
2023-01-06T13:53:27.853Z,99383.31
2023-01-06T13:59:29.735Z,99378.41
2023-01-06T14:05:31.483Z,99374.34
2023-01-06T14:11:37.777Z,99384.66
2023-01-06T14:17:45.679Z,99396.97
2023-01-06T14:24:07.797Z,99401.41
2023-01-06T14:30:30.726Z,99414.03
2023-01-06T14:36:34.536Z,99414.69
2023-01-06T14:42:45.402Z,99418.09
2023-01-06T14:49:01.023Z,99410.44
2023-01-06T14:55:09.710Z,99411.25
2023-01-06T15:01:29.870Z,99415.31
2023-01-06T15:07:31.882Z,99417.44
2023-01-06T15:13:34.203Z,99416.41
2023-01-06T15:19:36.545Z,99422.28
2023-01-06T15:25:38.775Z,99429.91
2023-01-06T15:31:41.222Z,99437.66
2023-01-06T15:37:45.481Z,99441.44
2023-01-06T15:43:48.387Z,99459.84
2023-01-06T15:49:56.963Z,99459.56
2023-01-06T15:56:00.876Z,99455.13
2023-01-06T16:02:03.842Z,99460.59
2023-01-06T16:08:29.053Z,99470.56
2023-01-06T16:14:38.948Z,99470.91
2023-01-06T16:20:41.207Z,99464.72
2023-01-06T16:26:48.088Z,99459.75
2023-01-06T16:32:54.429Z,99470.28
2023-01-06T16:38:56.316Z,99474.31
2023-01-06T16:45:06.426Z,99472.13
2023-01-06T16:51:18.104Z,99488.72
2023-01-06T16:57:22.457Z,99471.66
2023-01-06T17:03:30.645Z,99474.69
2023-01-06T17:09:34.519Z,99483.06
2023-01-06T17:15:36.425Z,99501.13
2023-01-06T17:21:39.751Z,99503.88
2023-01-06T17:27:45.453Z,99498.47
2023-01-06T17:33:47.501Z,99508.25
2023-01-06T17:39:50.260Z,99498.66
2023-01-06T17:45:52.326Z,99496.25
2023-01-06T17:51:54.821Z,99493.03
2023-01-06T17:57:59.082Z,99485.22
2023-01-06T18:04:06.465Z,99483.47
2023-01-06T18:10:16.147Z,99500.09
2023-01-06T18:16:33.244Z,99490.13
2023-01-06T18:22:36.083Z,99496.25
2023-01-06T18:28:38.018Z,99502.50
2023-01-06T18:34:43.100Z,99511.28
2023-01-06T18:40:45.705Z,99510.44
2023-01-06T18:46:47.655Z,99510.81
2023-01-06T18:52:51.753Z,99513.31
2023-01-06T18:58:57.382Z,99504.63
2023-01-06T19:05:00.458Z,99519.38
2023-01-06T19:11:11.519Z,99524.91
2023-01-06T19:17:23.143Z,99525.84
2023-01-06T19:23:28.247Z,99523.69
2023-01-06T19:29:35.108Z,99520.06
2023-01-06T19:35:37.039Z,99522.47
2023-01-06T19:41:38.927Z,99512.88
2023-01-06T19:47:42.043Z,99507.44
2023-01-06T19:53:48.231Z,99518.97
2023-01-06T19:59:50.127Z,99512.22
2023-01-06T20:05:52.077Z,99517.19
2023-01-06T20:11:54.087Z,99520.78
2023-01-06T20:17:55.953Z,99520.13
2023-01-06T20:23:58.518Z,99520.97
2023-01-06T20:30:00.507Z,99528.44
2023-01-06T20:36:02.376Z,99524.81
2023-01-06T20:42:05.563Z,99524.53
2023-01-06T20:48:07.574Z,99527.97
2023-01-06T20:54:09.518Z,99531.22
2023-01-06T21:00:13.148Z,99522.81
2023-01-06T21:06:16.120Z,99528.28
2023-01-06T21:12:18.114Z,99528.88
2023-01-06T21:18:20.011Z,99541.66
2023-01-06T21:24:22.180Z,99530.66
2023-01-06T21:30:24.516Z,99531.75
2023-01-06T21:36:26.742Z,99524.94
2023-01-06T21:42:47.258Z,99517.22
2023-01-06T21:48:49.161Z,99530.47
2023-01-06T21:54:51.069Z,99549.03
2023-01-06T22:00:53.086Z,99535.19
2023-01-06T22:06:59.447Z,99532.88
2023-01-06T22:13:02.994Z,99522.28
2023-01-06T22:19:06.019Z,99521.28
2023-01-06T22:25:08.621Z,99522.03
2023-01-06T22:31:10.605Z,99522.72
2023-01-06T22:37:12.561Z,99527.91
2023-01-06T22:43:14.593Z,99522.56
2023-01-06T22:49:16.540Z,99534.84
2023-01-06T22:55:18.431Z,99519.78
2023-01-06T23:01:20.525Z,99525.69
2023-01-06T23:07:22.549Z,99529.56
2023-01-06T23:13:24.503Z,99538.56
2023-01-06T23:19:26.560Z,99534.78
2023-01-06T23:25:28.461Z,99525.25
2023-01-06T23:31:35.778Z,99521.69
2023-01-06T23:37:37.709Z,99519.94
2023-01-06T23:43:42.643Z,99504.31
2023-01-06T23:49:45.396Z,99497.56
2023-01-06T23:56:03.119Z,99500.03
